Terminal Aerodrome Forecast
Issued by NWS Dodge City, KS

Home | Current Version | Previous Version | Graphics & Text | Print | Product List | Glossary On
Versions: 1 2 3 4 5 6 7 8 9 10 11 12
000
FTUS43 KDDC 061720
TAFDDC
TAF
KDDC 061720Z 0618/0718 18024G30KT P6SM SKC
     FM070500 17012G18KT P6SM SCT250 WS003/21050KT
     FM071400 19022G30KT P6SM SKC=

USA.gov is the U.S. government's official web portal to all federal, state and local government web resources and services.